sensor_id;sensor_type;location;lat;lon;timestamp;pressure;altitude;pressure_sealevel;temperature;humidity
62978;BME280;49073;42.352;23.808;2023-07-28T00:02:17;94744.28;;;16.91;52.15
62978;BME280;49073;42.352;23.808;2023-07-28T00:05:17;94741.66;;;16.77;52.89
62978;BME280;49073;42.352;23.808;2023-07-28T00:08:17;94744.44;;;16.55;53.46
62978;BME280;49073;42.352;23.808;2023-07-28T00:11:18;94749.16;;;16.25;53.96
62978;BME280;49073;42.352;23.808;2023-07-28T00:14:19;94747.25;;;16.11;54.91
62978;BME280;49073;42.352;23.808;2023-07-28T00:17:22;94745.34;;;16.01;55.39
62978;BME280;49073;42.352;23.808;2023-07-28T00:20:22;94757.63;;;15.69;56.29
62978;BME280;49073;42.352;23.808;2023-07-28T00:23:23;94746.88;;;15.66;56.09
62978;BME280;49073;42.352;23.808;2023-07-28T00:26:24;94754.53;;;15.78;55.70
62978;BME280;49073;42.352;23.808;2023-07-28T00:29:24;94751.47;;;15.47;56.18
62978;BME280;49073;42.352;23.808;2023-07-28T00:32:25;94746.88;;;15.51;56.30
62978;BME280;49073;42.352;23.808;2023-07-28T00:35:26;94741.09;;;15.24;56.76
62978;BME280;49073;42.352;23.808;2023-07-28T00:38:26;94739.19;;;15.28;57.12
62978;BME280;49073;42.352;23.808;2023-07-28T00:41:26;94735.75;;;15.38;57.04
62978;BME280;49073;42.352;23.808;2023-07-28T00:44:27;94732.28;;;15.27;56.97
62978;BME280;49073;42.352;23.808;2023-07-28T00:47:28;94733.41;;;15.15;57.50
62978;BME280;49073;42.352;23.808;2023-07-28T00:50:29;94739.09;;;14.84;58.39
62978;BME280;49073;42.352;23.808;2023-07-28T00:53:30;94731.34;;;14.68;58.71
62978;BME280;49073;42.352;23.808;2023-07-28T00:56:31;94732.53;;;14.71;58.94
62978;BME280;49073;42.352;23.808;2023-07-28T00:59:32;94735.97;;;14.72;59.56
62978;BME280;49073;42.352;23.808;2023-07-28T01:02:32;94740.19;;;14.73;59.12
62978;BME280;49073;42.352;23.808;2023-07-28T01:06:06;94733.72;;;14.77;59.13
62978;BME280;49073;42.352;23.808;2023-07-28T01:09:16;94732.22;;;14.98;58.76
62978;BME280;49073;42.352;23.808;2023-07-28T01:12:19;94741.06;;;15.06;58.11
62978;BME280;49073;42.352;23.808;2023-07-28T01:15:19;94737.97;;;15.00;58.64
62978;BME280;49073;42.352;23.808;2023-07-28T01:18:20;94737.59;;;14.98;58.57
62978;BME280;49073;42.352;23.808;2023-07-28T01:21:25;94739.13;;;14.99;58.87
62978;BME280;49073;42.352;23.808;2023-07-28T01:24:30;94736.78;;;14.79;59.13
62978;BME280;49073;42.352;23.808;2023-07-28T01:27:36;94732.53;;;14.71;59.56
62978;BME280;49073;42.352;23.808;2023-07-28T01:30:38;94731.34;;;14.65;59.52
62978;BME280;49073;42.352;23.808;2023-07-28T01:33:38;94724.84;;;14.66;59.60
62978;BME280;49073;42.352;23.808;2023-07-28T01:36:39;94716.84;;;14.77;59.60
62978;BME280;49073;42.352;23.808;2023-07-28T01:39:39;94707.97;;;14.69;59.31
62978;BME280;49073;42.352;23.808;2023-07-28T01:42:40;94706.03;;;14.59;60.50
62978;BME280;49073;42.352;23.808;2023-07-28T01:45:40;94706.13;;;14.88;59.09
62978;BME280;49073;42.352;23.808;2023-07-28T01:48:41;94700.00;;;14.83;58.30
62978;BME280;49073;42.352;23.808;2023-07-28T01:51:41;94701.50;;;14.70;59.57
62978;BME280;49073;42.352;23.808;2023-07-28T01:54:42;94689.50;;;14.46;60.27
62978;BME280;49073;42.352;23.808;2023-07-28T01:58:00;94694.03;;;14.27;60.67
62978;BME280;49073;42.352;23.808;2023-07-28T02:01:01;94689.16;;;14.51;59.73
62978;BME280;49073;42.352;23.808;2023-07-28T02:04:02;94683.78;;;14.47;60.14
62978;BME280;49073;42.352;23.808;2023-07-28T02:07:03;94689.97;;;14.69;59.32
62978;BME280;49073;42.352;23.808;2023-07-28T02:10:04;94696.16;;;14.81;58.34
62978;BME280;49073;42.352;23.808;2023-07-28T02:13:05;94688.13;;;14.84;58.57
62978;BME280;49073;42.352;23.808;2023-07-28T02:16:06;94691.19;;;14.76;59.13
62978;BME280;49073;42.352;23.808;2023-07-28T02:19:07;94694.25;;;14.78;59.02
62978;BME280;49073;42.352;23.808;2023-07-28T02:22:08;94700.75;;;14.73;58.60
62978;BME280;49073;42.352;23.808;2023-07-28T02:25:09;94698.75;;;14.66;58.51
62978;BME280;49073;42.352;23.808;2023-07-28T02:28:10;94704.09;;;14.52;59.06
62978;BME280;49073;42.352;23.808;2023-07-28T02:31:11;94706.00;;;14.48;59.64
62978;BME280;49073;42.352;23.808;2023-07-28T02:34:12;94701.00;;;14.50;59.45
62978;BME280;49073;42.352;23.808;2023-07-28T02:37:14;94704.09;;;14.52;59.24
62978;BME280;49073;42.352;23.808;2023-07-28T02:40:15;94715.25;;;14.68;58.77
62978;BME280;49073;42.352;23.808;2023-07-28T02:43:15;94714.56;;;14.79;59.88
62978;BME280;49073;42.352;23.808;2023-07-28T02:46:16;94712.25;;;14.74;57.87
62978;BME280;49073;42.352;23.808;2023-07-28T02:49:17;94722.38;;;14.32;60.82
62978;BME280;49073;42.352;23.808;2023-07-28T02:52:18;94715.03;;;14.14;62.67
62978;BME280;49073;42.352;23.808;2023-07-28T02:55:18;94726.38;;;13.89;63.52
62978;BME280;49073;42.352;23.808;2023-07-28T02:58:19;94729.47;;;13.91;62.79
62978;BME280;49073;42.352;23.808;2023-07-28T03:01:20;94734.22;;;14.20;61.72
62978;BME280;49073;42.352;23.808;2023-07-28T03:04:21;94739.53;;;14.16;60.79
62978;BME280;49073;42.352;23.808;2023-07-28T03:07:21;94735.28;;;14.11;61.35
62978;BME280;49073;42.352;23.808;2023-07-28T03:10:22;94735.66;;;14.06;60.89
62978;BME280;49073;42.352;23.808;2023-07-28T03:13:22;94739.13;;;14.07;60.84
62978;BME280;49073;42.352;23.808;2023-07-28T03:16:23;94747.44;;;13.91;64.01
62978;BME280;49073;42.352;23.808;2023-07-28T03:19:23;94743.56;;;13.85;63.44
62978;BME280;49073;42.352;23.808;2023-07-28T03:22:24;94749.31;;;13.87;62.54
62978;BME280;49073;42.352;23.808;2023-07-28T03:25:24;94745.88;;;13.90;61.82
62978;BME280;49073;42.352;23.808;2023-07-28T03:28:25;94750.53;;;13.96;60.90
62978;BME280;49073;42.352;23.808;2023-07-28T03:31:25;94757.94;;;13.62;61.87
62978;BME280;49073;42.352;23.808;2023-07-28T03:34:26;94752.53;;;13.17;63.30
62978;BME280;49073;42.352;23.808;2023-07-28T03:37:26;94759.97;;;13.34;63.28
62978;BME280;49073;42.352;23.808;2023-07-28T03:40:27;94765.19;;;13.58;63.31
62978;BME280;49073;42.352;23.808;2023-07-28T03:43:27;94763.72;;;13.67;62.29
62978;BME280;49073;42.352;23.808;2023-07-28T03:46:28;94768.31;;;13.67;62.99
62978;BME280;49073;42.352;23.808;2023-07-28T03:49:29;94773.63;;;13.63;62.78
62978;BME280;49073;42.352;23.808;2023-07-28T03:52:30;94773.38;;;13.79;62.01
62978;BME280;49073;42.352;23.808;2023-07-28T03:55:30;94779.53;;;13.84;61.81
62978;BME280;49073;42.352;23.808;2023-07-28T03:58:31;94783.78;;;13.92;61.40
62978;BME280;49073;42.352;23.808;2023-07-28T04:01:31;94791.13;;;13.99;61.25
62978;BME280;49073;42.352;23.808;2023-07-28T04:04:32;94785.38;;;13.96;62.66
62978;BME280;49073;42.352;23.808;2023-07-28T04:07:32;94787.59;;;13.87;62.65
62978;BME280;49073;42.352;23.808;2023-07-28T04:10:33;94782.25;;;13.91;61.85
62978;BME280;49073;42.352;23.808;2023-07-28T04:13:34;94779.66;;;14.05;61.65
62978;BME280;49073;42.352;23.808;2023-07-28T04:16:34;94786.59;;;14.10;60.70
62978;BME280;49073;42.352;23.808;2023-07-28T04:19:35;94784.06;;;14.35;58.95
62978;BME280;49073;42.352;23.808;2023-07-28T04:22:36;94789.47;;;14.43;58.08
62978;BME280;49073;42.352;23.808;2023-07-28T04:25:37;94787.97;;;14.45;60.21
62978;BME280;49073;42.352;23.808;2023-07-28T04:28:37;94798.59;;;14.31;60.63
62978;BME280;49073;42.352;23.808;2023-07-28T04:31:38;94795.91;;;14.31;61.70
62978;BME280;49073;42.352;23.808;2023-07-28T04:34:38;94803.19;;;14.30;62.38
62978;BME280;49073;42.352;23.808;2023-07-28T04:37:39;94800.44;;;14.16;62.36
62978;BME280;49073;42.352;23.808;2023-07-28T04:40:39;94801.69;;;14.36;60.99
62978;BME280;49073;42.352;23.808;2023-07-28T04:43:40;94799.16;;;14.62;59.78
62978;BME280;49073;42.352;23.808;2023-07-28T04:46:40;94800.66;;;14.59;58.31
62978;BME280;49073;42.352;23.808;2023-07-28T04:49:41;94803.47;;;14.81;57.63
62978;BME280;49073;42.352;23.808;2023-07-28T04:52:41;94801.63;;;15.00;57.20
62978;BME280;49073;42.352;23.808;2023-07-28T04:55:42;94806.25;;;15.10;56.92
62978;BME280;49073;42.352;23.808;2023-07-28T04:58:42;94803.91;;;14.90;59.30
62978;BME280;49073;42.352;23.808;2023-07-28T05:01:43;94794.75;;;15.06;58.34
62978;BME280;49073;42.352;23.808;2023-07-28T05:04:43;94781.72;;;15.15;56.81
62978;BME280;49073;42.352;23.808;2023-07-28T05:07:44;94791.31;;;15.12;57.10
62978;BME280;49073;42.352;23.808;2023-07-28T05:10:44;94794.81;;;15.35;56.90
62978;BME280;49073;42.352;23.808;2023-07-28T05:13:45;94790.97;;;15.39;56.66
62978;BME280;49073;42.352;23.808;2023-07-28T05:16:45;94795.59;;;15.42;54.80
62978;BME280;49073;42.352;23.808;2023-07-28T05:19:49;94798.66;;;15.37;54.78
62978;BME280;49073;42.352;23.808;2023-07-28T05:22:50;94798.25;;;15.32;53.57
62978;BME280;49073;42.352;23.808;2023-07-28T05:25:51;94793.63;;;15.28;51.89
62978;BME280;49073;42.352;23.808;2023-07-28T05:28:51;94799.00;;;15.28;50.00
62978;BME280;49073;42.352;23.808;2023-07-28T05:31:52;94789.03;;;15.29;51.15
62978;BME280;49073;42.352;23.808;2023-07-28T05:34:52;94789.84;;;15.44;50.43
62978;BME280;49073;42.352;23.808;2023-07-28T05:37:53;94780.25;;;15.57;50.94
62978;BME280;49073;42.352;23.808;2023-07-28T05:41:01;94776.81;;;15.75;52.12
62978;BME280;49073;42.352;23.808;2023-07-28T05:44:03;94774.53;;;15.88;51.67
62978;BME280;49073;42.352;23.808;2023-07-28T05:47:04;94773.34;;;16.14;50.51
62978;BME280;49073;42.352;23.808;2023-07-28T05:50:05;94777.59;;;16.16;52.37
62978;BME280;49073;42.352;23.808;2023-07-28T05:53:06;94779.84;;;16.35;51.47
62978;BME280;49073;42.352;23.808;2023-07-28T05:56:07;94780.25;;;16.34;50.39
62978;BME280;49073;42.352;23.808;2023-07-28T05:59:08;94787.50;;;16.48;51.64
62978;BME280;49073;42.352;23.808;2023-07-28T06:02:08;94782.09;;;16.58;50.03
62978;BME280;49073;42.352;23.808;2023-07-28T06:05:09;94779.03;;;16.60;49.75
62978;BME280;49073;42.352;23.808;2023-07-28T06:08:09;94782.81;;;16.73;51.41
62978;BME280;49073;42.352;23.808;2023-07-28T06:11:11;94773.94;;;16.80;49.55
62978;BME280;49073;42.352;23.808;2023-07-28T06:14:11;94785.47;;;16.81;50.14
62978;BME280;49073;42.352;23.808;2023-07-28T06:17:11;94780.84;;;16.89;49.70
62978;BME280;49073;42.352;23.808;2023-07-28T06:20:12;94770.41;;;16.94;50.69
62978;BME280;49073;42.352;23.808;2023-07-28T06:23:13;94766.91;;;17.12;49.38
62978;BME280;49073;42.352;23.808;2023-07-28T06:26:13;94765.66;;;17.27;48.83
62978;BME280;49073;42.352;23.808;2023-07-28T06:29:14;94760.59;;;17.33;50.28
62978;BME280;49073;42.352;23.808;2023-07-28T06:32:15;94763.22;;;17.48;49.93
62978;BME280;49073;42.352;23.808;2023-07-28T06:35:16;94763.13;;;17.62;49.51
62978;BME280;49073;42.352;23.808;2023-07-28T06:38:16;94754.91;;;17.77;51.31
62978;BME280;49073;42.352;23.808;2023-07-28T06:41:18;94761.34;;;17.90;49.86
62978;BME280;49073;42.352;23.808;2023-07-28T06:44:18;94753.19;;;18.01;49.60
62978;BME280;49073;42.352;23.808;2023-07-28T06:47:19;94744.22;;;18.11;49.67
62978;BME280;49073;42.352;23.808;2023-07-28T06:50:19;94757.16;;;18.31;48.77
62978;BME280;49073;42.352;23.808;2023-07-28T06:53:20;94750.47;;;18.43;49.24
62978;BME280;49073;42.352;23.808;2023-07-28T06:56:20;94758.81;;;18.56;49.07
62978;BME280;49073;42.352;23.808;2023-07-28T06:59:21;94757.09;;;18.69;49.15
62978;BME280;49073;42.352;23.808;2023-07-28T07:02:22;94756.50;;;18.89;50.25
62978;BME280;49073;42.352;23.808;2023-07-28T07:05:22;94756.88;;;18.87;48.76
62978;BME280;49073;42.352;23.808;2023-07-28T07:08:24;94749.66;;;19.12;48.79
62978;BME280;49073;42.352;23.808;2023-07-28T07:11:24;94748.47;;;19.16;47.79
62978;BME280;49073;42.352;23.808;2023-07-28T07:14:25;94758.59;;;19.36;47.74
62978;BME280;49073;42.352;23.808;2023-07-28T07:17:25;94744.88;;;19.51;47.91
62978;BME280;49073;42.352;23.808;2023-07-28T07:20:26;94752.47;;;19.59;47.05
62978;BME280;49073;42.352;23.808;2023-07-28T07:23:26;94753.91;;;19.64;47.35
62978;BME280;49073;42.352;23.808;2023-07-28T07:26:27;94748.03;;;19.69;46.60
62978;BME280;49073;42.352;23.808;2023-07-28T07:29:27;94739.66;;;19.87;46.78
62978;BME280;49073;42.352;23.808;2023-07-28T07:32:28;94744.44;;;20.03;47.32
62978;BME280;49073;42.352;23.808;2023-07-28T07:35:28;94746.06;;;20.21;46.43
62978;BME280;49073;42.352;23.808;2023-07-28T07:38:29;94750.44;;;20.35;46.16
62978;BME280;49073;42.352;23.808;2023-07-28T07:41:29;94733.31;;;20.42;45.80
62978;BME280;49073;42.352;23.808;2023-07-28T07:44:30;94743.03;;;20.59;45.05
62978;BME280;49073;42.352;23.808;2023-07-28T07:47:32;94742.25;;;20.59;44.06
62978;BME280;49073;42.352;23.808;2023-07-28T07:50:33;94735.09;;;20.69;43.80
62978;BME280;49073;42.352;23.808;2023-07-28T07:53:34;94730.25;;;20.80;43.88
62978;BME280;49073;42.352;23.808;2023-07-28T07:56:37;94731.97;;;20.90;42.06
62978;BME280;49073;42.352;23.808;2023-07-28T07:59:37;94740.56;;;21.05;43.24
62978;BME280;49073;42.352;23.808;2023-07-28T08:02:38;94735.69;;;21.17;42.43
62978;BME280;49073;42.352;23.808;2023-07-28T08:05:39;94739.34;;;21.27;44.24
62978;BME280;49073;42.352;23.808;2023-07-28T08:08:40;94732.84;;;21.41;42.54
62978;BME280;49073;42.352;23.808;2023-07-28T08:11:41;94733.44;;;21.48;41.61
62978;BME280;49073;42.352;23.808;2023-07-28T08:14:43;94744.19;;;21.52;41.06
62978;BME280;49073;42.352;23.808;2023-07-28T08:17:45;94739.13;;;21.54;41.56
62978;BME280;49073;42.352;23.808;2023-07-28T08:20:49;94731.34;;;21.73;40.64
62978;BME280;49073;42.352;23.808;2023-07-28T08:23:49;94732.00;;;21.93;42.43
62978;BME280;49073;42.352;23.808;2023-07-28T08:26:50;94724.19;;;22.12;40.94
62978;BME280;49073;42.352;23.808;2023-07-28T08:29:51;94728.38;;;22.30;40.07
62978;BME280;49073;42.352;23.808;2023-07-28T08:32:51;94726.97;;;22.38;41.57
62978;BME280;49073;42.352;23.808;2023-07-28T08:35:52;94729.84;;;22.77;38.07
62978;BME280;49073;42.352;23.808;2023-07-28T08:38:53;94729.31;;;22.82;38.21
62978;BME280;49073;42.352;23.808;2023-07-28T08:42:03;94727.47;;;22.92;38.34
62978;BME280;49073;42.352;23.808;2023-07-28T08:45:05;94716.19;;;23.06;36.49
62978;BME280;49073;42.352;23.808;2023-07-28T08:48:06;94716.09;;;23.23;37.09
62978;BME280;49073;42.352;23.808;2023-07-28T08:51:06;94705.94;;;23.23;38.28
62978;BME280;49073;42.352;23.808;2023-07-28T08:54:08;94695.88;;;23.37;37.63
62978;BME280;49073;42.352;23.808;2023-07-28T08:57:09;94702.38;;;23.65;37.07
62978;BME280;49073;42.352;23.808;2023-07-28T09:00:11;94692.53;;;23.81;37.83
62978;BME280;49073;42.352;23.808;2023-07-28T09:03:14;94697.34;;;23.77;37.13
62978;BME280;49073;42.352;23.808;2023-07-28T09:06:15;94690.25;;;23.79;35.46
62978;BME280;49073;42.352;23.808;2023-07-28T09:09:17;94685.97;;;24.04;34.97
62978;BME280;49073;42.352;23.808;2023-07-28T09:12:17;94681.91;;;24.09;37.30
62978;BME280;49073;42.352;23.808;2023-07-28T09:15:19;94677.75;;;24.17;35.41
62978;BME280;49073;42.352;23.808;2023-07-28T09:18:25;94665.09;;;24.23;35.95
62978;BME280;49073;42.352;23.808;2023-07-28T09:21:27;94665.25;;;24.74;34.84
62978;BME280;49073;42.352;23.808;2023-07-28T09:24:32;94661.09;;;24.91;35.49
62978;BME280;49073;42.352;23.808;2023-07-28T09:27:33;94656.25;;;24.95;36.22
62978;BME280;49073;42.352;23.808;2023-07-28T09:30:47;94656.50;;;25.29;35.14
62978;BME280;49073;42.352;23.808;2023-07-28T09:33:49;94649.00;;;25.42;34.06
62978;BME280;49073;42.352;23.808;2023-07-28T09:36:50;94640.38;;;25.63;33.79
62978;BME280;49073;42.352;23.808;2023-07-28T09:39:50;94648.31;;;25.89;33.05
62978;BME280;49073;42.352;23.808;2023-07-28T09:42:52;94638.13;;;26.08;32.79
62978;BME280;49073;42.352;23.808;2023-07-28T09:45:55;94641.78;;;26.33;32.82
62978;BME280;49073;42.352;23.808;2023-07-28T09:48:59;94636.59;;;26.35;34.78
62978;BME280;49073;42.352;23.808;2023-07-28T09:52:04;94632.34;;;26.43;32.70
62978;BME280;49073;42.352;23.808;2023-07-28T09:55:07;94629.75;;;26.49;33.63
62978;BME280;49073;42.352;23.808;2023-07-28T09:58:12;94632.06;;;26.32;32.32
62978;BME280;49073;42.352;23.808;2023-07-28T10:01:17;94625.69;;;26.25;31.37
62978;BME280;49073;42.352;23.808;2023-07-28T10:04:18;94627.19;;;26.36;31.32
62978;BME280;49073;42.352;23.808;2023-07-28T10:07:18;94623.81;;;26.60;31.65
62978;BME280;49073;42.352;23.808;2023-07-28T10:10:19;94609.09;;;26.57;31.54
62978;BME280;49073;42.352;23.808;2023-07-28T10:13:22;94609.06;;;26.66;31.33
62978;BME280;49073;42.352;23.808;2023-07-28T10:16:39;94620.41;;;26.83;30.73
62978;BME280;49073;42.352;23.808;2023-07-28T10:19:40;94609.91;;;26.82;30.29
62978;BME280;49073;42.352;23.808;2023-07-28T10:22:44;94608.69;;;26.83;30.45
62978;BME280;49073;42.352;23.808;2023-07-28T10:25:45;94611.22;;;27.29;30.27
62978;BME280;49073;42.352;23.808;2023-07-28T10:28:46;94601.19;;;27.02;29.92
62978;BME280;49073;42.352;23.808;2023-07-28T10:31:51;94610.59;;;27.01;30.11
62978;BME280;49073;42.352;23.808;2023-07-28T10:38:33;94596.56;;;27.42;30.37
62978;BME280;49073;42.352;23.808;2023-07-28T10:41:37;94598.41;;;27.60;30.11
62978;BME280;49073;42.352;23.808;2023-07-28T10:44:37;94598.00;;;27.77;30.27
62978;BME280;49073;42.352;23.808;2023-07-28T10:47:39;94588.94;;;27.85;29.52
62978;BME280;49073;42.352;23.808;2023-07-28T10:50:40;94582.03;;;28.29;28.76
62978;BME280;49073;42.352;23.808;2023-07-28T10:53:42;94576.41;;;28.09;28.96
62978;BME280;49073;42.352;23.808;2023-07-28T10:56:43;94584.16;;;27.95;26.74
62978;BME280;49073;42.352;23.808;2023-07-28T10:59:44;94575.16;;;27.95;26.92
62978;BME280;49073;42.352;23.808;2023-07-28T11:02:51;94567.34;;;28.02;28.58
62978;BME280;49073;42.352;23.808;2023-07-28T11:05:54;94567.63;;;28.05;27.98
62978;BME280;49073;42.352;23.808;2023-07-28T11:08:55;94561.03;;;28.11;26.74
62978;BME280;49073;42.352;23.808;2023-07-28T11:11:55;94554.78;;;27.96;27.19
62978;BME280;49073;42.352;23.808;2023-07-28T11:14:56;94552.81;;;28.26;27.08
62978;BME280;49073;42.352;23.808;2023-07-28T11:17:57;94548.38;;;28.59;26.23
62978;BME280;49073;42.352;23.808;2023-07-28T11:20:57;94546.63;;;28.77;27.36
62978;BME280;49073;42.352;23.808;2023-07-28T11:23:58;94546.63;;;28.92;28.24
62978;BME280;49073;42.352;23.808;2023-07-28T11:26:58;94548.00;;;29.23;27.94
62978;BME280;49073;42.352;23.808;2023-07-28T11:30:00;94545.34;;;29.28;27.07
62978;BME280;49073;42.352;23.808;2023-07-28T11:33:03;94540.66;;;29.55;26.56
62978;BME280;49073;42.352;23.808;2023-07-28T11:36:04;94532.94;;;29.54;25.86
62978;BME280;49073;42.352;23.808;2023-07-28T11:39:04;94532.97;;;29.59;26.21
62978;BME280;49073;42.352;23.808;2023-07-28T11:42:06;94532.50;;;29.40;28.10
62978;BME280;49073;42.352;23.808;2023-07-28T11:45:07;94527.78;;;29.41;26.65
62978;BME280;49073;42.352;23.808;2023-07-28T11:48:08;94533.84;;;29.30;27.18
62978;BME280;49073;42.352;23.808;2023-07-28T11:51:12;94522.00;;;29.39;25.35
62978;BME280;49073;42.352;23.808;2023-07-28T11:54:15;94536.56;;;29.24;24.66
62978;BME280;49073;42.352;23.808;2023-07-28T11:57:16;94524.66;;;28.92;26.89
62978;BME280;49073;42.352;23.808;2023-07-28T12:00:17;94514.94;;;29.11;28.01
62978;BME280;49073;42.352;23.808;2023-07-28T12:03:17;94514.88;;;29.47;26.29
62978;BME280;49073;42.352;23.808;2023-07-28T12:06:18;94510.84;;;29.69;26.92
62978;BME280;49073;42.352;23.808;2023-07-28T12:09:18;94511.19;;;29.76;26.45
62978;BME280;49073;42.352;23.808;2023-07-28T12:12:20;94499.16;;;29.74;26.04
62978;BME280;49073;42.352;23.808;2023-07-28T12:15:26;94490.50;;;29.81;25.37
62978;BME280;49073;42.352;23.808;2023-07-28T12:18:30;94494.06;;;29.87;24.34
62978;BME280;49073;42.352;23.808;2023-07-28T12:21:31;94494.50;;;30.07;24.37
62978;BME280;49073;42.352;23.808;2023-07-28T12:24:32;94485.44;;;30.00;23.41
62978;BME280;49073;42.352;23.808;2023-07-28T12:27:33;94500.53;;;30.11;23.77
62978;BME280;49073;42.352;23.808;2023-07-28T12:30:34;94500.41;;;29.99;24.42
62978;BME280;49073;42.352;23.808;2023-07-28T12:33:34;94503.03;;;30.09;23.55
62978;BME280;49073;42.352;23.808;2023-07-28T12:36:35;94503.41;;;30.28;23.56
62978;BME280;49073;42.352;23.808;2023-07-28T12:39:37;94499.13;;;30.21;25.66
62978;BME280;49073;42.352;23.808;2023-07-28T12:42:40;94495.72;;;30.38;23.88
62978;BME280;49073;42.352;23.808;2023-07-28T12:45:41;94496.72;;;30.34;23.58
62978;BME280;49073;42.352;23.808;2023-07-28T12:48:42;94487.88;;;30.57;23.50
62978;BME280;49073;42.352;23.808;2023-07-28T12:51:42;94489.16;;;30.61;24.25
62978;BME280;49073;42.352;23.808;2023-07-28T12:54:43;94480.69;;;30.65;24.86
62978;BME280;49073;42.352;23.808;2023-07-28T12:57:45;94481.31;;;30.48;26.90
62978;BME280;49073;42.352;23.808;2023-07-28T13:00:48;94490.56;;;30.51;24.14
62978;BME280;49073;42.352;23.808;2023-07-28T13:03:49;94488.50;;;30.40;23.94
62978;BME280;49073;42.352;23.808;2023-07-28T13:06:53;94484.28;;;30.45;23.99
62978;BME280;49073;42.352;23.808;2023-07-28T13:09:56;94469.53;;;30.10;25.40
62978;BME280;49073;42.352;23.808;2023-07-28T13:12:57;94478.41;;;30.26;25.15
62978;BME280;49073;42.352;23.808;2023-07-28T13:15:58;94464.78;;;30.43;24.62
62978;BME280;49073;42.352;23.808;2023-07-28T13:18:59;94464.19;;;30.65;24.54
62978;BME280;49073;42.352;23.808;2023-07-28T13:21:59;94456.03;;;30.82;24.88
62978;BME280;49073;42.352;23.808;2023-07-28T13:25:00;94459.00;;;30.73;24.51
62978;BME280;49073;42.352;23.808;2023-07-28T13:28:01;94458.34;;;30.52;24.58
62978;BME280;49073;42.352;23.808;2023-07-28T13:31:02;94464.41;;;30.61;24.44
62978;BME280;49073;42.352;23.808;2023-07-28T13:34:03;94451.97;;;30.72;24.20
62978;BME280;49073;42.352;23.808;2023-07-28T13:37:04;94451.09;;;30.54;23.35
62978;BME280;49073;42.352;23.808;2023-07-28T13:40:05;94452.16;;;30.62;24.98
62978;BME280;49073;42.352;23.808;2023-07-28T13:43:06;94448.25;;;30.75;25.38
62978;BME280;49073;42.352;23.808;2023-07-28T13:46:07;94450.38;;;30.59;25.65
62978;BME280;49073;42.352;23.808;2023-07-28T13:49:08;94440.53;;;30.41;23.53
62978;BME280;49073;42.352;23.808;2023-07-28T13:52:09;94440.34;;;30.56;24.56
62978;BME280;49073;42.352;23.808;2023-07-28T13:55:09;94444.97;;;30.71;24.69
62978;BME280;49073;42.352;23.808;2023-07-28T13:58:10;94437.53;;;30.39;25.59
62978;BME280;49073;42.352;23.808;2023-07-28T14:01:10;94445.78;;;30.45;25.10
62978;BME280;49073;42.352;23.808;2023-07-28T14:04:11;94444.00;;;30.36;25.05
62978;BME280;49073;42.352;23.808;2023-07-28T14:07:11;94431.72;;;30.31;25.48
62978;BME280;49073;42.352;23.808;2023-07-28T14:10:12;94433.94;;;30.27;25.58
62978;BME280;49073;42.352;23.808;2023-07-28T14:13:12;94433.47;;;30.34;25.74
62978;BME280;49073;42.352;23.808;2023-07-28T14:16:14;94434.56;;;30.48;26.27
62978;BME280;49073;42.352;23.808;2023-07-28T14:19:15;94429.34;;;30.56;26.90
62978;BME280;49073;42.352;23.808;2023-07-28T14:22:15;94432.53;;;30.43;25.07
62978;BME280;49073;42.352;23.808;2023-07-28T14:25:16;94432.75;;;30.40;24.99
62978;BME280;49073;42.352;23.808;2023-07-28T14:28:16;94423.28;;;30.41;24.97
62978;BME280;49073;42.352;23.808;2023-07-28T14:31:17;94431.06;;;30.10;24.30
62978;BME280;49073;42.352;23.808;2023-07-28T14:34:18;94428.91;;;30.20;26.01
62978;BME280;49073;42.352;23.808;2023-07-28T14:37:18;94424.31;;;30.06;25.54
62978;BME280;49073;42.352;23.808;2023-07-28T14:40:19;94422.03;;;30.04;26.62
62978;BME280;49073;42.352;23.808;2023-07-28T14:43:19;94422.88;;;30.16;26.72
62978;BME280;49073;42.352;23.808;2023-07-28T14:46:20;94425.09;;;30.12;26.53
62978;BME280;49073;42.352;23.808;2023-07-28T14:49:22;94419.34;;;30.10;26.64
62978;BME280;49073;42.352;23.808;2023-07-28T14:52:23;94417.59;;;30.12;26.06
62978;BME280;49073;42.352;23.808;2023-07-28T14:55:24;94418.81;;;30.06;24.87
62978;BME280;49073;42.352;23.808;2023-07-28T14:58:24;94414.53;;;30.04;25.96
62978;BME280;49073;42.352;23.808;2023-07-28T15:01:26;94427.69;;;29.95;26.34
62978;BME280;49073;42.352;23.808;2023-07-28T15:04:26;94415.91;;;29.88;27.34
62978;BME280;49073;42.352;23.808;2023-07-28T15:07:27;94416.44;;;29.93;26.84
62978;BME280;49073;42.352;23.808;2023-07-28T15:10:28;94420.38;;;29.86;27.32
62978;BME280;49073;42.352;23.808;2023-07-28T15:13:29;94418.38;;;29.86;26.80
62978;BME280;49073;42.352;23.808;2023-07-28T15:16:30;94413.81;;;29.78;26.88
62978;BME280;49073;42.352;23.808;2023-07-28T15:19:30;94418.56;;;29.77;27.43
62978;BME280;49073;42.352;23.808;2023-07-28T15:22:31;94405.25;;;29.70;27.36
62978;BME280;49073;42.352;23.808;2023-07-28T15:25:33;94414.88;;;29.54;27.53
62978;BME280;49073;42.352;23.808;2023-07-28T15:28:33;94412.56;;;29.46;27.77
62978;BME280;49073;42.352;23.808;2023-07-28T15:31:34;94418.44;;;29.39;28.47
62978;BME280;49073;42.352;23.808;2023-07-28T15:34:34;94418.16;;;29.37;27.69
62978;BME280;49073;42.352;23.808;2023-07-28T15:37:35;94420.16;;;29.37;27.90
62978;BME280;49073;42.352;23.808;2023-07-28T15:40:35;94415.63;;;29.33;28.05
62978;BME280;49073;42.352;23.808;2023-07-28T15:43:36;94415.91;;;29.36;28.18
62978;BME280;49073;42.352;23.808;2023-07-28T15:46:36;94418.84;;;29.32;28.10
62978;BME280;49073;42.352;23.808;2023-07-28T15:49:38;94416.59;;;29.30;28.35
62978;BME280;49073;42.352;23.808;2023-07-28T15:52:38;94413.25;;;29.21;28.58